Aosta, Italy

9:32 AM CET on January 21, 2017 (GMT +0100)
Via Monte Vodice | | Change Station

Elev 1916 ft 45.74 °N, 7.31 °E | Updated 5 minutes ago

Clear
Clear
18.1 °F
Feels Like 18 °F
N
1.2
Wind Variable Wind from West
Gusts 1.9 mph

Today
High -- | Low -- °F
--% Chance of Precip.
Yesterday
High -- | Low -- °F
Precip. -- in
Pressure 30.39 in
Visibility -9999.0 miles
Clouds
Windchill 18 °F
Dew Point 14 °F
Humidity 84%
Rainfall Not available.
Snow Depth Not available.
8:03 AM 5:21 PM
Last Quarter, 37% visible
METAR LSGS 210820Z 00000KT CAVOK M08/M10 Q1029
Pressure 30.39 in
Visibility -9999.0 miles
Clouds
Windchill 18 °F
Dew Point 14 °F
Humidity 84%
Rainfall Not available.
Snow Depth Not available.
8:03 AM 5:21 PM
Last Quarter, 37% visible
METAR LSGS 210820Z 00000KT CAVOK M08/M10 Q1029

Get Your Daily Forecast Email!

Thanks for signing up!

Be on the lookout for a verification email in your inbox.

You'll start receiving the daily forecast at 8 AM.

×

10-Day Weather Forecast

×

Almanac

Astronomy

Jan. 21, 2017 Rise Set
Actual Time
Civil Twilight
Nautical Twilight
Astronomical Twilight
Moon
Length of Visible Light
Length of Day
Tomorrow will be .
, % of the Moon is Illuminated

Today's Extremes

Country Highs Country Lows

Community

WunderPhotos

Upload Photos

1,962,540 photos uploaded!

WunderBlog® & News

Nearby

Air Quality

  Air Quality AQ Index Pollutant
Not available.

Snow Depth

Station Depth Elevation

Earthquake Activity

City Distance Mag. Time & Date
Minimum magnitude displayed is 2.5.

Coastal Water Temperatures

Place Temperature

Stations

Nearby Weather Stations

Station Location Temp. Windchill Dew Point Humidity Wind Precip. Elev Updated Type